Time;durP1;ratioP1;P1;durP2;ratioP2;P2;SDS_P1;SDS_P2;PMS_P1;PMS_P2;Temp;Humidity;BMP_temperature;BMP_pressure;BME280_temperature;BME280_humidity;BME280_pressure;Samples;Min_cycle;Max_cycle;Signal;HPM_P1;HPM_P2
2023/10/16 00:02:22;;;;;;;9.13;8.83;;;;;;;10.05;91.37;92622.50;5049043;28;20179;-87
2023/10/16 00:04:47;;;;;;;8.87;8.47;;;;;;;10.20;90.29;92629.41;5048338;28;20226;-78
2023/10/16 00:07:14;;;;;;;9.50;9.10;;;;;;;10.24;89.38;92620.75;5049135;28;20238;-87
2023/10/16 00:09:40;;;;;;;8.60;8.30;;;;;;;10.13;88.46;92610.72;5047856;28;20227;-84
2023/10/16 00:12:07;;;;;;;9.00;8.70;;;;;;;10.18;86.84;92621.09;5048207;28;20267;-81
2023/10/16 00:14:35;;;;;;;9.23;8.83;;;;;;;10.27;85.87;92614.22;5041729;28;20281;-81
2023/10/16 00:17:08;;;;;;;9.23;8.93;;;;;;;10.29;86.70;92628.53;5049023;28;20201;-81
2023/10/16 00:19:37;;;;;;;9.50;9.13;;;;;;;10.20;86.28;92639.84;5028630;28;20283;-81
2023/10/16 00:22:02;;;;;;;8.50;8.20;;;;;;;10.35;84.55;92632.66;5043524;28;20225;-81
2023/10/16 00:24:28;;;;;;;8.87;8.57;;;;;;;10.42;83.81;92656.59;5047734;28;20221;-81
2023/10/16 00:26:54;;;;;;;9.47;9.07;;;;;;;10.43;83.25;92644.34;5047449;28;20192;-82
2023/10/16 00:29:19;;;;;;;8.93;8.53;;;;;;;10.35;83.96;92656.13;5048820;28;20222;-81
2023/10/16 00:31:51;;;;;;;9.47;9.07;;;;;;;10.26;82.78;92644.75;5048496;28;20193;-79
2023/10/16 00:34:22;;;;;;;9.17;8.67;;;;;;;10.37;82.35;92661.06;5047584;28;20218;-81
2023/10/16 00:36:54;;;;;;;8.10;7.87;;;;;;;10.36;81.94;92655.09;5047477;28;20726;-82
2023/10/16 00:39:20;;;;;;;8.33;8.03;;;;;;;10.20;82.21;92671.94;5034192;28;20225;-83
2023/10/16 00:41:50;;;;;;;8.47;8.07;;;;;;;10.15;82.38;92671.97;5045627;28;20189;-80
2023/10/16 00:44:17;;;;;;;9.37;8.73;;;;;;;9.95;82.90;92703.41;5048343;28;20229;-81
2023/10/16 00:46:48;;;;;;;9.33;9.03;;;;;;;9.82;83.66;92690.22;5041317;28;20229;-80
2023/10/16 00:49:18;;;;;;;10.23;9.30;;;;;;;9.91;83.54;92684.16;5048248;28;20234;-80
2023/10/16 00:51:45;;;;;;;9.40;9.07;;;;;;;9.76;84.32;92686.84;5048149;28;20186;-80
2023/10/16 00:54:18;;;;;;;9.13;8.70;;;;;;;9.68;84.77;92684.84;5043805;28;20221;-81
2023/10/16 00:56:51;;;;;;;9.07;8.43;;;;;;;9.63;84.81;92677.78;5047695;28;20182;-81
2023/10/16 00:59:17;;;;;;;9.07;8.77;;;;;;;9.82;83.67;92688.38;5047960;28;20242;-79
2023/10/16 01:01:44;;;;;;;9.30;8.77;;;;;;;9.78;83.01;92677.72;5050774;28;20178;-78
2023/10/16 01:04:19;;;;;;;10.10;9.60;;;;;;;9.93;82.48;92689.84;5050589;28;20230;-77
2023/10/16 01:06:45;;;;;;;9.80;9.50;;;;;;;10.05;81.09;92699.94;5051325;28;20186;-80
2023/10/16 01:09:22;;;;;;;10.90;10.13;;;;;;;9.80;82.58;92698.31;5051209;28;20229;-80
2023/10/16 01:11:48;;;;;;;9.33;8.83;;;;;;;9.63;83.36;92714.28;5052034;28;20200;-79
2023/10/16 01:14:13;;;;;;;9.97;9.63;;;;;;;9.59;83.19;92722.91;5051695;28;20241;-80
2023/10/16 01:16:39;;;;;;;10.07;9.67;;;;;;;9.56;84.08;92710.44;5051724;28;20193;-79
2023/10/16 01:19:09;;;;;;;9.93;9.43;;;;;;;9.19;86.00;92689.25;5043667;28;20213;-80
2023/10/16 01:21:34;;;;;;;9.73;9.23;;;;;;;9.20;86.98;92691.59;5051017;28;20193;-81
2023/10/16 01:24:09;;;;;;;11.70;11.10;;;;;;;8.92;88.41;92681.06;5050724;28;20256;-79
2023/10/16 01:26:35;;;;;;;10.97;10.53;;;;;;;8.97;88.84;92688.81;5052037;28;20241;-77
2023/10/16 01:29:07;;;;;;;10.77;10.17;;;;;;;9.11;88.80;92695.00;5051560;28;20221;-79
2023/10/16 01:31:33;;;;;;;10.73;10.23;;;;;;;8.53;90.00;92651.50;5045776;28;20190;-80
2023/10/16 01:33:59;;;;;;;11.57;10.77;;;;;;;8.88;90.41;92698.22;5052761;28;20260;-80
2023/10/16 01:36:24;;;;;;;11.77;11.17;;;;;;;8.74;91.34;92692.81;5050980;28;20193;-81
2023/10/16 01:38:49;;;;;;;11.43;10.73;;;;;;;8.74;92.10;92694.63;5050976;28;20321;-80
2023/10/16 01:41:18;;;;;;;10.90;10.27;;;;;;;8.76;91.61;92682.94;5038582;28;20190;-80
2023/10/16 01:43:43;;;;;;;11.00;10.40;;;;;;;8.69;91.81;92692.03;5051112;28;20226;-81
2023/10/16 01:46:12;;;;;;;11.20;10.60;;;;;;;8.84;91.66;92715.44;5050071;28;20245;-80
2023/10/16 01:48:44;;;;;;;12.37;11.67;;;;;;;8.72;91.77;92713.13;5051077;28;20222;-80
2023/10/16 01:51:10;;;;;;;11.73;11.03;;;;;;;8.79;90.43;92729.25;5051488;28;20178;-80
2023/10/16 01:53:36;;;;;;;11.23;10.63;;;;;;;9.08;88.40;92722.38;5042838;28;20233;-79
2023/10/16 01:56:12;;;;;;;11.60;10.90;;;;;;;9.10;89.76;92735.91;5050725;28;20238;-81
2023/10/16 01:58:46;;;;;;;11.70;11.00;;;;;;;8.96;89.11;92737.53;5049611;28;20313;-80
2023/10/16 02:01:16;;;;;;;11.47;10.87;;;;;;;8.90;90.68;92756.03;5046483;28;20241;-80
2023/10/16 02:03:46;;;;;;;11.80;11.07;;;;;;;8.79;91.51;92752.69;5051033;28;20518;-79
2023/10/16 02:06:12;;;;;;;12.83;11.93;;;;;;;8.52;93.16;92759.19;5051177;28;20186;-80
2023/10/16 02:08:39;;;;;;;12.87;12.10;;;;;;;8.51;93.90;92763.66;5050715;28;20225;-79
2023/10/16 02:11:06;;;;;;;12.80;12.00;;;;;;;8.52;93.76;92754.00;5050984;28;20242;-79
2023/10/16 02:13:35;;;;;;;13.00;12.00;;;;;;;8.10;93.91;92715.25;5043858;28;20234;-80
2023/10/16 02:16:02;;;;;;;10.97;10.37;;;;;;;8.54;92.92;92789.13;5051106;28;20703;-80
2023/10/16 02:18:36;;;;;;;12.90;12.10;;;;;;;8.68;91.66;92786.78;5050425;28;20256;-79
2023/10/16 02:21:01;;;;;;;12.17;11.47;;;;;;;8.78;89.32;92792.75;5047644;28;20186;-79
2023/10/16 02:23:30;;;;;;;12.30;11.63;;;;;;;8.65;89.74;92801.09;5050522;28;20225;-80
2023/10/16 02:25:56;;;;;;;12.20;11.47;;;;;;;8.68;89.14;92805.78;5050534;28;20186;-79
2023/10/16 02:28:22;;;;;;;12.47;11.67;;;;;;;8.64;88.56;92798.75;5048906;28;20222;-79
2023/10/16 02:30:49;;;;;;;13.03;12.23;;;;;;;8.62;88.35;92785.22;5050502;28;20218;-78
2023/10/16 02:35:48;;;;;;;11.70;11.00;;;;;;;8.45;87.80;92756.09;5050446;28;20184;-79
2023/10/16 02:38:14;;;;;;;11.83;11.23;;;;;;;8.60;87.07;92789.91;5049953;28;20230;-78
2023/10/16 02:40:43;;;;;;;12.80;12.00;;;;;;;8.63;85.50;92808.38;5050543;28;20715;-79
2023/10/16 02:43:13;;;;;;;12.23;11.53;;;;;;;8.69;84.45;92809.16;5045240;28;20272;-78
2023/10/16 02:45:46;;;;;;;12.37;11.57;;;;;;;8.61;84.75;92826.06;5044915;28;20224;-79
2023/10/16 02:48:18;;;;;;;12.90;12.10;;;;;;;8.61;83.92;92820.88;5050374;28;20332;-79
2023/10/16 02:50:54;;;;;;;13.07;12.23;;;;;;;8.62;84.08;92813.84;5048769;28;20186;-78
2023/10/16 02:53:25;;;;;;;13.17;12.27;;;;;;;8.68;83.07;92826.59;5042521;28;20232;-78
2023/10/16 02:55:57;;;;;;;13.33;12.53;;;;;;;8.59;83.77;92815.13;5047458;28;20682;-78
2023/10/16 02:58:27;;;;;;;13.77;12.60;;;;;;;8.54;82.82;92819.56;5042561;28;20226;-78
2023/10/16 03:00:55;;;;;;;12.57;11.77;;;;;;;8.50;82.64;92813.34;5045351;28;20193;-78
2023/10/16 03:03:24;;;;;;;13.23;12.43;;;;;;;8.45;82.81;92814.09;5036397;28;20228;-79
2023/10/16 03:05:55;;;;;;;12.63;11.83;;;;;;;8.37;83.18;92834.66;5050101;28;20209;-78
2023/10/16 03:08:30;;;;;;;13.00;12.10;;;;;;;8.32;83.42;92822.44;5049769;28;21007;-80
2023/10/16 03:10:57;;;;;;;12.80;12.00;;;;;;;8.49;82.68;92822.16;5046565;28;20181;-80
2023/10/16 03:13:24;;;;;;;13.77;12.63;;;;;;;8.57;82.35;92825.03;5048917;28;20222;-79
2023/10/16 03:15:58;;;;;;;14.27;13.30;;;;;;;8.56;82.21;92800.03;5046653;28;20240;-80
2023/10/16 03:18:23;;;;;;;13.43;12.63;;;;;;;8.77;81.10;92827.63;5043906;28;20226;-80
2023/10/16 03:23:45;;;;;;;12.07;11.47;;;;;;;8.48;82.48;92854.44;5046672;28;20217;-80
2023/10/16 03:26:22;;;;;;;11.97;11.27;;;;;;;8.41;82.85;92840.88;5045732;28;20194;-79
2023/10/16 03:28:50;;;;;;;11.97;11.17;;;;;;;8.44;83.19;92877.56;5030588;28;20218;-80
2023/10/16 03:31:16;;;;;;;13.73;12.93;;;;;;;8.40;83.04;92865.34;5043612;28;20190;-77
2023/10/16 03:33:43;;;;;;;12.07;11.37;;;;;;;8.51;82.39;92882.53;5042851;28;20218;-79
2023/10/16 03:36:09;;;;;;;12.93;12.07;;;;;;;8.40;82.68;92875.75;5048728;28;20178;-79
2023/10/16 03:38:38;;;;;;;13.13;12.23;;;;;;;8.44;82.71;92850.78;5048977;28;20241;-79
2023/10/16 03:44:06;;;;;;;12.97;12.17;;;;;;;8.28;82.84;92867.41;5040501;28;20245;-81
2023/10/16 03:46:32;;;;;;;13.57;12.67;;;;;;;8.20;83.51;92871.28;5042128;28;20290;-79
2023/10/16 03:48:57;;;;;;;14.27;13.33;;;;;;;8.12;83.31;92849.13;5039494;28;20229;-77
2023/10/16 03:51:24;;;;;;;13.10;12.10;;;;;;;8.28;82.73;92864.81;5048169;28;20186;-83
2023/10/16 03:53:52;;;;;;;13.63;12.70;;;;;;;8.16;82.45;92878.81;5047676;28;20230;-84
2023/10/16 03:56:18;;;;;;;13.90;13.00;;;;;;;8.16;82.67;92891.03;5047058;28;20247;-83
2023/10/16 03:58:46;;;;;;;13.13;12.30;;;;;;;8.24;82.59;92890.56;5048326;28;20222;-81
2023/10/16 04:01:12;;;;;;;14.47;13.37;;;;;;;8.15;82.69;92900.63;5048006;28;20716;-84
2023/10/16 04:03:47;;;;;;;14.10;13.20;;;;;;;8.04;82.71;92880.88;5048065;28;20355;-90
2023/10/16 04:06:20;;;;;;;13.03;12.23;;;;;;;8.07;82.25;92882.94;5045728;28;20200;-88
2023/10/16 04:08:49;;;;;;;11.80;11.00;;;;;;;8.13;82.64;92894.94;5048314;28;20245;-82
2023/10/16 04:11:20;;;;;;;14.37;13.30;;;;;;;8.23;81.59;92896.81;5047118;28;20313;-84
2023/10/16 04:13:48;;;;;;;14.23;13.03;;;;;;;8.24;81.28;92907.97;5045676;28;20252;-82
2023/10/16 04:19:34;;;;;;;12.37;11.57;;;;;;;8.38;80.73;92915.03;5041869;28;20230;-81
2023/10/16 04:22:09;;;;;;;12.50;11.53;;;;;;;8.37;80.07;92912.69;5042723;28;20221;-80
2023/10/16 04:24:44;;;;;;;15.77;13.47;;;;;;;8.32;80.02;92887.47;5047967;28;20279;-85
2023/10/16 04:29:46;;;;;;;14.57;13.57;;;;;;;8.27;80.29;92928.25;5046422;28;20221;-78
2023/10/16 04:35:03;;;;;;;13.13;12.33;;;;;;;8.37;80.05;92959.50;5033787;28;20229;-79
2023/10/16 04:37:29;;;;;;;14.30;13.40;;;;;;;8.19;80.54;92961.50;5046054;28;20209;-81
2023/10/16 04:50:29;;;;;;;14.03;12.73;;;;;;;8.16;80.13;92995.03;5071018;28;20314;-76
2023/10/16 04:55:53;;;;;;;14.20;12.93;;;;;;;8.13;79.96;93000.75;5068541;28;20245;-76
2023/10/16 05:06:14;;;;;;;13.93;12.67;;;;;;;8.18;79.88;93030.19;5068415;28;20220;-77
2023/10/16 05:17:21;;;;;;;12.73;11.87;;;;;;;7.88;81.00;93030.00;4991102;28;20182;-76
2023/10/16 05:19:53;;;;;;;13.07;12.17;;;;;;;8.22;79.70;93014.06;4990399;28;20216;-76
2023/10/16 06:14:20;;;;;;;12.53;11.63;;;;;;;7.94;77.31;93106.19;5069832;28;20243;-77
2023/10/16 06:16:54;;;;;;;12.73;11.43;;;;;;;8.08;76.10;93128.91;5062930;28;20284;-77
2023/10/16 06:19:22;;;;;;;12.77;11.83;;;;;;;8.31;76.28;93153.03;5070167;28;20224;-77
2023/10/16 06:21:57;;;;;;;11.93;11.33;;;;;;;8.18;76.83;93143.81;5064080;28;20194;-78
2023/10/16 06:24:33;;;;;;;11.90;11.23;;;;;;;8.37;76.69;93146.81;5069976;28;20232;-76
2023/10/16 06:27:10;;;;;;;14.17;12.87;;;;;;;8.67;75.22;93141.78;5068992;28;20182;-76
2023/10/16 06:29:52;;;;;;;12.33;11.30;;;;;;;8.93;73.27;93148.66;5069941;28;20224;-76
2023/10/16 06:32:22;;;;;;;10.73;10.03;;;;;;;8.88;72.22;93157.22;5070612;28;20217;-77
2023/10/16 06:34:51;;;;;;;11.67;11.00;;;;;;;8.88;71.78;93159.84;5069409;28;20229;-78
2023/10/16 06:37:17;;;;;;;12.00;11.20;;;;;;;8.74;72.72;93157.94;5063596;28;20185;-76
2023/10/16 06:39:47;;;;;;;12.37;11.47;;;;;;;8.55;73.22;93154.19;5069857;28;20255;-76
2023/10/16 06:42:18;;;;;;;11.97;11.03;;;;;;;8.72;72.77;93160.00;5071870;28;20186;-77
2023/10/16 06:44:54;;;;;;;10.87;10.27;;;;;;;8.68;73.44;93151.13;5052032;28;20460;-76
2023/10/16 06:47:23;;;;;;;11.33;10.53;;;;;;;8.92;72.23;93167.94;5046209;28;20185;-76
2023/10/16 06:49:50;;;;;;;11.13;10.53;;;;;;;9.02;70.55;93155.72;5044478;28;20322;-77
2023/10/16 06:52:17;;;;;;;11.23;10.73;;;;;;;9.14;70.31;93161.47;5050378;28;20206;-76
2023/10/16 06:54:44;;;;;;;12.73;11.73;;;;;;;9.38;69.46;93170.44;5046800;28;20297;-77
2023/10/16 06:57:13;;;;;;;10.33;9.83;;;;;;;8.96;69.99;93166.38;5050701;28;20189;-76
2023/10/16 06:59:45;;;;;;;11.87;10.97;;;;;;;9.00;70.97;93173.41;5048535;28;20229;-77
2023/10/16 07:02:19;;;;;;;11.13;10.27;;;;;;;9.24;69.77;93181.56;5041420;28;20178;-76
2023/10/16 07:04:46;;;;;;;11.07;10.20;;;;;;;8.75;70.97;93190.72;5047912;28;20324;-77
2023/10/16 07:07:16;;;;;;;10.93;10.13;;;;;;;8.95;70.81;93183.03;5041383;28;20174;-76
2023/10/16 07:09:48;;;;;;;11.70;10.77;;;;;;;8.85;71.02;93191.59;5040260;28;20222;-77
2023/10/16 07:12:18;;;;;;;11.87;10.73;;;;;;;8.86;70.74;93192.34;5048378;28;20217;-75
2023/10/16 07:14:57;;;;;;;10.53;9.73;;;;;;;8.97;70.47;93188.75;5037268;28;20225;-78
2023/10/16 07:17:28;;;;;;;11.03;10.23;;;;;;;8.83;70.00;93185.03;5046408;28;20170;-79
2023/10/16 07:20:00;;;;;;;10.67;10.17;;;;;;;8.92;70.40;93186.16;5050072;28;20233;-78
2023/10/16 07:22:32;;;;;;;11.20;10.43;;;;;;;9.22;69.62;93178.44;5048675;28;20218;-78
2023/10/16 07:25:23;;;;;;;10.70;10.03;;;;;;;9.17;69.36;93175.81;5048941;28;20240;-78
2023/10/16 07:27:47;;;;;;;11.10;10.07;;;;;;;9.28;68.56;93173.00;5041758;28;20306;-79
2023/10/16 07:30:21;;;;;;;11.30;10.80;;;;;;;9.30;67.91;93180.56;5035760;28;20208;-77
2023/10/16 07:32:48;;;;;;;9.97;9.17;;;;;;;9.21;67.45;93182.84;5047587;28;20213;-76
2023/10/16 07:35:17;;;;;;;10.90;10.40;;;;;;;9.22;68.66;93183.66;5039641;28;20188;-76
2023/10/16 07:37:48;;;;;;;11.00;10.40;;;;;;;9.32;68.12;93175.88;5048475;28;20182;-87
2023/10/16 07:40:15;;;;;;;10.50;9.87;;;;;;;9.55;67.26;93196.25;5049240;28;20217;-77
2023/10/16 07:42:41;;;;;;;10.37;9.77;;;;;;;9.68;66.75;93183.50;5048876;28;20459;-89
2023/10/16 07:45:07;;;;;;;11.07;10.47;;;;;;;9.37;66.93;93191.53;5042591;28;20222;-85
2023/10/16 07:47:32;;;;;;;11.43;10.73;;;;;;;9.53;66.78;93195.72;5043439;28;20192;-80
2023/10/16 07:49:58;;;;;;;10.07;9.57;;;;;;;9.49;65.67;93195.44;5047949;28;20325;-78
2023/10/16 07:52:23;;;;;;;11.73;10.90;;;;;;;9.40;65.98;93177.97;5049091;28;20210;-77
2023/10/16 07:54:48;;;;;;;10.00;9.43;;;;;;;9.89;64.46;93191.34;5035253;28;20248;-84
2023/10/16 07:57:17;;;;;;;10.17;9.57;;;;;;;9.90;64.66;93191.09;5048924;28;20174;-83
2023/10/16 07:59:43;;;;;;;11.30;10.57;;;;;;;10.14;64.21;93181.75;5043906;28;20219;-81
2023/10/16 08:02:17;;;;;;;11.83;11.13;;;;;;;10.24;63.89;93181.72;5045552;28;20190;-82
2023/10/16 08:04:43;;;;;;;10.53;9.63;;;;;;;10.14;62.65;93176.53;5049924;28;20218;-82
2023/10/16 08:07:16;;;;;;;11.27;10.37;;;;;;;10.35;62.23;93179.91;5047860;28;20282;-80
2023/10/16 08:12:18;;;;;;;11.67;9.27;;;;;;;10.37;60.11;93183.81;5049908;28;20188;-81
2023/10/16 08:14:45;;;;;;;11.03;10.33;;;;;;;10.57;59.52;93181.19;5032697;28;20216;-79
2023/10/16 08:17:32;;;;;;;9.83;9.17;;;;;;;10.62;59.78;93178.56;5042425;28;20190;-80
2023/10/16 08:19:58;;;;;;;11.30;9.17;;;;;;;10.47;58.76;93175.97;5045499;28;20210;-80
2023/10/16 08:22:25;;;;;;;10.57;9.60;;;;;;;10.66;58.39;93187.41;5046024;28;20221;-79
2023/10/16 08:25:04;;;;;;;9.03;8.63;;;;;;;10.89;59.76;93180.84;5037811;28;20220;-80
2023/10/16 08:27:50;;;;;;;9.73;8.77;;;;;;;10.77;57.93;93183.75;5044897;28;22209;-80
2023/10/16 08:30:19;;;;;;;11.00;10.27;;;;;;;10.61;57.69;93187.44;5047305;28;20252;-80
2023/10/16 08:35:20;;;;;;;10.20;9.43;;;;;;;10.94;56.47;93197.28;5041344;28;20179;-78
2023/10/16 08:37:59;;;;;;;10.27;9.47;;;;;;;10.90;56.67;93196.25;5047663;28;20208;-80
2023/10/16 08:40:35;;;;;;;9.90;9.37;;;;;;;10.77;57.09;93202.03;5047569;28;20211;-80
2023/10/16 08:43:03;;;;;;;9.37;8.80;;;;;;;10.96;56.64;93200.41;5036925;28;20229;-80
2023/10/16 08:45:32;;;;;;;9.20;8.70;;;;;;;10.95;55.69;93196.25;5039989;28;20230;-80
2023/10/16 08:47:58;;;;;;;9.73;9.23;;;;;;;10.86;56.65;93192.59;5041635;28;20298;-79
2023/10/16 08:50:40;;;;;;;9.80;9.20;;;;;;;10.79;54.19;93207.78;5047742;28;20213;-82
2023/10/16 08:53:09;;;;;;;10.00;9.50;;;;;;;10.67;53.68;93193.44;5047171;28;20248;-79
2023/10/16 08:55:35;;;;;;;9.27;8.37;;;;;;;10.64;55.57;93194.75;5047261;28;20189;-84
2023/10/16 08:58:04;;;;;;;9.20;8.70;;;;;;;10.95;54.09;93196.25;5053814;28;20226;-78
2023/10/16 09:00:30;;;;;;;10.60;9.73;;;;;;;10.88;54.62;93208.03;5047704;28;20209;-78
2023/10/16 09:03:00;;;;;;;10.37;9.57;;;;;;;10.88;52.64;93202.81;5047515;28;20174;-78
2023/10/16 09:05:26;;;;;;;9.23;8.43;;;;;;;11.02;52.46;93201.97;5048184;28;20254;-80
2023/10/16 09:07:51;;;;;;;8.93;8.53;;;;;;;11.13;51.52;93203.50;5046509;28;20182;-79
2023/10/16 09:10:21;;;;;;;8.57;8.17;;;;;;;11.11;51.69;93194.38;5047660;28;20198;-78
2023/10/16 09:13:12;;;;;;;9.97;9.27;;;;;;;11.23;52.83;93203.47;5046111;28;20215;-80
2023/10/16 09:15:45;;;;;;;9.73;9.17;;;;;;;11.29;53.55;93210.22;5046607;28;20185;-79
2023/10/16 09:18:21;;;;;;;9.90;9.40;;;;;;;11.53;51.72;93204.38;5033084;28;20245;-79
2023/10/16 09:20:49;;;;;;;9.30;8.80;;;;;;;11.21;51.28;93213.41;5044045;28;20190;-79
2023/10/16 09:23:15;;;;;;;10.30;9.60;;;;;;;11.16;52.86;93210.00;5056237;28;20289;-77
2023/10/16 09:25:45;;;;;;;9.77;8.97;;;;;;;11.49;52.09;93205.97;5050202;28;20201;-81
2023/10/16 09:28:16;;;;;;;9.90;9.50;;;;;;;11.17;51.77;93186.22;5036736;28;20246;-80
2023/10/16 09:30:45;;;;;;;9.37;8.87;;;;;;;11.27;51.38;93191.41;5050199;28;20174;-80
2023/10/16 09:33:10;;;;;;;10.57;9.97;;;;;;;11.86;50.03;93198.47;5049697;28;20226;-79
2023/10/16 09:35:43;;;;;;;10.10;9.60;;;;;;;11.80;51.20;93202.19;5049472;28;20234;-78
2023/10/16 09:38:19;;;;;;;10.67;9.87;;;;;;;11.57;50.48;93202.78;5050593;28;20233;-80
2023/10/16 09:41:37;;;;;;;10.47;9.70;;;;;;;11.60;50.40;93189.16;5045039;28;20182;-79
2023/10/16 09:43:48;;;;;;;9.77;9.13;;;;;;;11.63;49.86;93186.03;5045918;28;20230;-78
2023/10/16 09:46:48;;;;;;;10.53;9.90;;;;;;;11.75;50.43;93173.44;5046472;28;20222;-79
2023/10/16 09:49:21;;;;;;;9.90;9.23;;;;;;;11.90;48.92;93189.00;5046402;28;20225;-76
2023/10/16 09:51:47;;;;;;;11.27;10.27;;;;;;;11.99;48.93;93179.53;5051125;28;20250;-80
2023/10/16 09:54:14;;;;;;;11.03;10.33;;;;;;;11.84;48.84;93182.25;5050636;28;20234;-80
2023/10/16 09:56:44;;;;;;;9.67;9.17;;;;;;;12.03;48.18;93175.31;5049255;28;20273;-80
2023/10/16 09:59:22;;;;;;;9.70;9.20;;;;;;;11.82;48.75;93173.88;5045055;28;20226;-80
2023/10/16 10:01:51;;;;;;;10.50;9.80;;;;;;;11.81;49.04;93167.09;5039293;28;20188;-80
2023/10/16 10:04:24;;;;;;;10.27;9.30;;;;;;;12.06;48.53;93186.00;5050987;28;20218;-78
2023/10/16 10:06:54;;;;;;;10.17;9.60;;;;;;;12.08;49.25;93177.88;5051393;28;20249;-74
2023/10/16 10:09:22;;;;;;;10.70;9.93;;;;;;;12.15;48.39;93178.38;5047255;28;20222;-76
2023/10/16 10:12:13;;;;;;;10.20;9.60;;;;;;;11.88;47.53;93175.41;5045318;28;20179;-76
2023/10/16 10:14:50;;;;;;;10.80;10.20;;;;;;;11.98;48.32;93152.59;5040707;28;20449;-75
2023/10/16 10:17:20;;;;;;;9.73;9.13;;;;;;;11.96;48.78;93164.38;5047448;28;20192;-77
2023/10/16 10:19:54;;;;;;;10.07;9.67;;;;;;;12.14;48.00;93161.13;5041350;28;20218;-77
2023/10/16 10:22:27;;;;;;;10.07;9.53;;;;;;;12.17;48.07;93161.31;5044490;28;20695;-79
2023/10/16 10:25:25;;;;;;;10.37;9.87;;;;;;;12.16;47.79;93161.59;5050196;28;20217;-79
2023/10/16 10:27:54;;;;;;;9.93;9.37;;;;;;;12.33;48.04;93154.91;5048633;28;20253;-76
2023/10/16 10:30:26;;;;;;;10.17;9.67;;;;;;;12.22;48.09;93163.13;5047043;28;20227;-79
2023/10/16 10:32:58;;;;;;;9.97;9.27;;;;;;;12.03;47.42;93143.94;5043176;28;20226;-78
2023/10/16 10:35:28;;;;;;;9.90;9.50;;;;;;;12.18;47.50;93146.41;5045943;28;20214;-78
2023/10/16 10:38:20;;;;;;;11.33;10.63;;;;;;;12.27;47.43;93145.53;5049047;28;20196;-79
2023/10/16 10:41:04;;;;;;;10.77;10.07;;;;;;;12.05;45.89;93137.34;5039868;28;20189;-78
2023/10/16 10:43:46;;;;;;;9.40;9.00;;;;;;;12.15;46.37;93133.88;5036117;28;20238;-79
2023/10/16 10:46:34;;;;;;;10.13;9.53;;;;;;;12.28;46.02;93130.63;5048853;28;20234;-78
2023/10/16 10:49:01;;;;;;;10.03;9.40;;;;;;;12.38;45.76;93135.75;5045766;28;20261;-78
2023/10/16 10:51:34;;;;;;;9.20;8.80;;;;;;;12.19;45.31;93125.19;5049141;28;20186;-78
2023/10/16 10:54:03;;;;;;;9.53;9.13;;;;;;;12.27;45.62;93129.03;5047922;28;20214;-76
2023/10/16 10:56:47;;;;;;;10.37;9.87;;;;;;;12.21;45.77;93117.84;5048450;28;20209;-80
2023/10/16 10:59:32;;;;;;;10.07;9.47;;;;;;;12.44;46.00;93121.56;5048156;28;20227;-81
2023/10/16 11:02:09;;;;;;;10.03;9.33;;;;;;;12.35;45.70;93113.53;5038800;28;20205;-79
2023/10/16 11:04:35;;;;;;;9.43;8.93;;;;;;;12.23;45.65;93114.97;5048224;28;20218;-80
2023/10/16 11:07:11;;;;;;;9.90;9.40;;;;;;;12.16;45.37;93110.03;5048634;28;20199;-82
2023/10/16 11:09:40;;;;;;;9.43;8.70;;;;;;;12.40;45.60;93118.72;5040477;28;20207;-80
2023/10/16 11:12:09;;;;;;;10.47;9.77;;;;;;;12.21;45.48;93119.69;5048083;28;20195;-76
2023/10/16 11:14:41;;;;;;;10.40;9.83;;;;;;;12.09;45.37;93132.34;5044540;28;20229;-77
2023/10/16 11:17:06;;;;;;;9.10;8.70;;;;;;;12.17;45.73;93129.16;5046974;28;20209;-75
2023/10/16 11:19:49;;;;;;;10.17;9.47;;;;;;;12.52;47.13;93116.50;5048689;28;20214;-75
2023/10/16 11:22:21;;;;;;;9.07;8.67;;;;;;;12.74;46.71;93119.44;5047713;28;20191;-78
2023/10/16 11:24:47;;;;;;;8.77;8.37;;;;;;;12.86;45.50;93116.41;5049311;28;20214;-77
2023/10/16 11:27:14;;;;;;;9.47;8.97;;;;;;;12.67;44.47;93120.78;5046087;28;20193;-78
2023/10/16 11:29:42;;;;;;;9.20;8.67;;;;;;;12.86;44.64;93106.69;5047634;28;20254;-78
2023/10/16 11:32:13;;;;;;;9.10;8.50;;;;;;;12.51;42.65;93083.50;5047325;28;20179;-81
2023/10/16 11:34:47;;;;;;;9.67;9.17;;;;;;;12.44;42.58;93098.00;5047544;28;20224;-78
2023/10/16 11:37:13;;;;;;;9.57;9.07;;;;;;;12.64;43.56;93113.50;5041156;28;20186;-80
2023/10/16 11:39:39;;;;;;;9.00;8.40;;;;;;;12.89;43.68;93102.72;5048010;28;20218;-78
2023/10/16 11:42:05;;;;;;;9.87;9.43;;;;;;;12.66;43.91;93093.84;5042243;28;20991;-77
2023/10/16 11:44:33;;;;;;;9.17;8.67;;;;;;;12.60;42.57;93102.03;5042573;28;20302;-77
2023/10/16 11:47:05;;;;;;;10.10;9.63;;;;;;;12.60;43.16;93102.81;5046169;28;20240;-78
2023/10/16 11:49:37;;;;;;;9.57;9.17;;;;;;;12.75;43.81;93110.50;5039771;28;20218;-77
2023/10/16 11:52:09;;;;;;;9.83;9.23;;;;;;;12.79;43.83;93103.63;5041200;28;20943;-77
2023/10/16 11:54:40;;;;;;;11.07;10.23;;;;;;;12.67;42.80;93110.31;5041839;28;20224;-77
2023/10/16 11:57:06;;;;;;;10.47;9.53;;;;;;;12.76;43.14;93085.84;5048330;28;20284;-77
2023/10/16 11:59:32;;;;;;;10.00;9.60;;;;;;;12.59;43.63;93076.91;5046482;28;20303;-76
2023/10/16 12:02:10;;;;;;;9.30;8.80;;;;;;;12.78;41.98;93088.19;5037614;28;20193;-74
2023/10/16 12:04:36;;;;;;;10.10;9.60;;;;;;;12.77;42.76;93086.63;5043403;28;20222;-76
2023/10/16 12:07:02;;;;;;;9.40;9.00;;;;;;;12.82;42.90;93086.59;5043906;28;20206;-76
2023/10/16 12:09:36;;;;;;;9.57;8.80;;;;;;;12.81;42.28;93083.16;5042082;28;20225;-76
2023/10/16 12:12:06;;;;;;;9.30;8.80;;;;;;;12.98;42.39;93092.44;5045823;28;20178;-77
2023/10/16 12:14:37;;;;;;;9.77;9.27;;;;;;;12.77;41.62;93084.00;5036278;28;20230;-76
2023/10/16 12:17:06;;;;;;;9.63;8.93;;;;;;;12.93;41.78;93077.53;5041753;28;20201;-76
2023/10/16 12:19:33;;;;;;;9.60;9.00;;;;;;;12.89;43.41;93073.91;5048046;28;20240;-76
2023/10/16 12:22:00;;;;;;;9.80;8.93;;;;;;;12.93;42.87;93065.19;5044663;28;20178;-75
2023/10/16 12:24:26;;;;;;;10.50;10.00;;;;;;;12.76;41.91;93085.09;5047987;28;20512;-77
2023/10/16 12:26:52;;;;;;;10.10;9.50;;;;;;;12.83;41.95;93077.66;5047676;28;20267;-76
2023/10/16 12:29:18;;;;;;;10.13;9.37;;;;;;;12.88;41.64;93078.38;5047173;28;20308;-77
2023/10/16 12:31:43;;;;;;;8.33;8.03;;;;;;;12.86;40.43;93080.50;5043060;28;20214;-76
2023/10/16 12:34:12;;;;;;;9.40;8.90;;;;;;;12.94;41.06;93066.00;5046497;28;20233;-77
2023/10/16 12:36:40;;;;;;;9.57;8.87;;;;;;;12.88;39.08;93072.34;5043322;28;20178;-78
2023/10/16 12:39:28;;;;;;;9.73;9.20;;;;;;;13.04;40.13;93065.91;5047566;28;20229;-79
2023/10/16 12:41:55;;;;;;;9.60;9.07;;;;;;;13.26;40.96;93058.25;5044026;28;20190;-77
2023/10/16 12:44:23;;;;;;;9.97;9.43;;;;;;;13.44;42.60;93069.81;5059036;28;20210;-79
2023/10/16 12:46:50;;;;;;;9.60;9.20;;;;;;;13.40;39.94;93056.47;5034250;28;20226;-78
2023/10/16 12:49:15;;;;;;;9.47;9.03;;;;;;;13.22;40.63;93053.84;5047591;28;20262;-75
2023/10/16 12:51:42;;;;;;;10.10;9.37;;;;;;;13.25;40.14;93046.22;5046729;28;20170;-74
2023/10/16 12:54:09;;;;;;;9.93;9.17;;;;;;;13.35;42.57;93061.81;5045935;28;20261;-76
2023/10/16 12:56:35;;;;;;;9.93;9.40;;;;;;;13.29;40.74;93072.66;5047467;28;20196;-77
2023/10/16 12:59:03;;;;;;;11.80;9.80;;;;;;;13.05;40.85;93062.22;5051125;28;20277;-78
2023/10/16 13:01:30;;;;;;;9.87;9.17;;;;;;;12.97;40.20;93065.41;5050314;28;20189;-77
2023/10/16 13:03:59;;;;;;;10.20;9.67;;;;;;;13.03;40.76;93063.56;5047590;28;20229;-76
2023/10/16 13:06:29;;;;;;;9.57;8.93;;;;;;;13.12;39.92;93065.25;5049217;28;20214;-76
2023/10/16 13:08:57;;;;;;;8.90;8.43;;;;;;;13.05;40.80;93066.66;5050176;28;20728;-81
2023/10/16 13:11:24;;;;;;;9.90;9.40;;;;;;;13.21;40.57;93066.19;5051537;28;20183;-78
2023/10/16 13:13:50;;;;;;;10.63;9.87;;;;;;;13.25;41.22;93064.56;5045317;28;20233;-77
2023/10/16 13:16:24;;;;;;;9.73;9.13;;;;;;;13.10;40.13;93070.00;5047722;28;20179;-78
2023/10/16 13:18:59;;;;;;;9.37;8.70;;;;;;;13.32;40.76;93066.84;5056915;28;20485;-80
2023/10/16 13:21:32;;;;;;;9.67;8.70;;;;;;;13.36;39.82;93071.22;5050924;28;20204;-76
2023/10/16 13:24:16;;;;;;;9.67;9.13;;;;;;;13.17;40.58;93062.56;5042074;28;20225;-78
2023/10/16 13:26:42;;;;;;;8.63;8.23;;;;;;;13.32;41.41;93065.00;5062527;28;20173;-78
2023/10/16 13:29:09;;;;;;;8.93;8.53;;;;;;;13.38;42.07;93065.69;5085811;28;20216;-78